Galesburg, Kansas
Current Conditions -  °F | °C
As of 9:00 AM on Saturday 25 Oct 2014 (Local Time) from KPPF Reporting Station
Haze Haze  
Wind Chill: 62°   Ceiling: Unl
Heat Index: 62°   Visibility: 3mi
Dew Point: 62°   Wind: 3mph
Humidity: 100%   Direction: 170°S
Pressure: 30.09"   Gusts: NA
Location:  37.47°N, 95.36°W
Report Text: KPPF 251400Z AUTO 17003KT 3SM BR CLR 17/17 A3009 RMK AO2 T01670167
Loading
Personal Weather Stations






























Interactive Weather Map
Tropical Storm Tracking
New forecast layout! Learn more

10-Day Weather Forecast

Advertisements
Track Severe Weather on mobile